x

Central Caribbean - 210 Nm Sse Of Kingston, Jamaica (42058) Wave Buoy

11:50 - Thu 18th Sep 2014 All times are EST. -5 hours from GMT.

  • Sig Wave height 3.0ft
  • Swell Direction
  • Peak Period 5s
  • Average Period 4s
  • Wind
    9mph
  • Sea Temp 84°f
  • Aire Temp 83°f
  • Sea Pressure 1013.2mb
  • Central Caribbean - 210 Nm Sse Of Kingston, Jamaica
  • Central Caribbean - 210 Nm Sse Of Kingston, Jamaica

More Historic Weather Station data

Upgrade to MSW Pro to gain access to the past 30 days of data for over 8000 Wavebouys and Weather Stations around the globe.

Join Pro

Comparision Forecast

View Surf forecast
   
jue 09/18 11:50 3ft 5s 4s 9
mph
1013.2mb 84f 83f
10:50 3ft 5s 4s 9 11 mph 1013.9mb 84f 83f
9:50 3ft 6s 4s 13 16 mph 1013.7mb 83f 83f
8:50 3.5ft 6s 4s 13 16 mph 1013.5mb 83f 83f
7:50 3.5ft 5s 4s 16 18 mph 1013.2mb 83f 83f
6:50 3ft 5s 4s 18 20 mph 1012.3mb 83f 83f
5:50 3ft 5s 4s 16 20 mph 1011.6mb 83f 83f
4:50 2.5ft 6s 4s 16 18 mph 1011.2mb 83f 83f
3:50 2.5ft 5s 4s 13 16 mph 1011.2mb 83f 83f
2:50 2.5ft 5s 5s 13 16 mph 1011.3mb 83f 82f
1:50 2.5ft 6s 5s 13
mph
1012mb 83f 83f
12:50 2.5ft 6s 4s 13 16 mph 1012.8mb 83f 82f
mié 09/17 11:50 2.5ft 6s 4s 11 16 mph 1013.2mb 83f 83f
10:50 2.5ft 6s 5s 11 13 mph 1013.9mb 83f 83f
9:50 2.5ft 6s 5s 11 13 mph 1013.9mb 83f 83f
8:50 2.5ft 5s 5s 11
mph
1013.6mb 83f 83f
7:50 3ft 5s 5s 9 11 mph 1012.9mb 83f 83f
6:50 3ft 5s 5s 9 11 mph 1012.3mb 83f 83f
5:50 3ft 6s 5s 9 11 mph 1012mb 83f 83f
4:50 2.5ft 5s 4s 11 13 mph 1011mb 83f 83f
3:50 2.5ft 6s 4s 11 13 mph 1010.8mb 83f 83f
2:50 2.5ft 6s 4s 11 13 mph 1011.1mb 84f 83f
1:50 2.5ft 5s 4s 13 16 mph 1011.5mb 83f 83f
12:50 2.5ft 5s 4s 13 16 mph 1012.1mb 83f 83f
11:50 2.5ft 6s 4s 13 16 mph 1012.8mb 83f 83f
10:50 3ft 6s 4s 13 16 mph 1013.7mb 83f 83f
9:50 3ft 6s 4s 16 20 mph 1013.6mb 83f 83f
8:50 3ft 6s 4s 16 18 mph 1013.1mb 83f 83f
7:50 3ft 6s 4s 13 18 mph 1012.6mb 83f 82f
6:50 3ft 6s 4s 13 16 mph 1012.3mb 83f 82f
5:50 3.5ft 6s 5s 13 16 mph 1012.4mb 83f 82f
4:50 3.5ft 6s 5s 11 16 mph 1012.4mb 83f 82f
3:50 3ft 6s 5s 13 16 mph 1012mb 83f 82f
2:50 3ft 6s 5s 13 16 mph 1011.7mb 83f 82f
1:50 2.5ft 6s 4s 16 18 mph 1012mb 83f 82f
12:50 2.5ft 6s 4s 16
mph
1012.7mb 83f 83f
mar 09/16 11:50 2.5ft 6s 4s 13 18 mph 1013.4mb 83f 83f
10:50 2.5ft 6s 5s 16 18 mph 1013.5mb 83f 83f
9:50 2.5ft 6s 5s 13 16 mph 1013.7mb 83f 83f
8:50 3ft 7s 5s 13
mph
1013.7mb 83f 83f
7:50 2.5ft 6s 5s 9 11 mph 1013.2mb 83f 83f
6:50 3ft 6s 5s 11 13 mph 1012.3mb 83f 83f
5:50 2.5ft 6s 5s 11 16 mph 1011.5mb 83f 83f
4:50 3ft 6s 5s 13 18 mph 1011.3mb 83f 82f
3:50 3.5ft 6s 5s 11
mph
1011.4mb 83f 83f
2:50 3ft 7s 5s 13 16 mph 1012.1mb 83f 83f
1:50 3.5ft 6s 5s 13
mph
1012.8mb 83f 83f
12:50 3.5ft 6s 5s 13 16 mph 1013.3mb 83f 83f
11:50 3.5ft 7s 5s 13 16 mph 1013.6mb 83f 83f
10:50 3.5ft 6s 5s 13 16 mph 1014.3mb 83f 83f
9:50 3.5ft 6s 5s 16 18 mph 1014.7mb 83f 83f
8:50 3.5ft 6s 5s 16 18 mph 1015.1mb 83f 83f
7:50 4ft 7s 5s 13 16 mph 1014.8mb 83f 83f
6:50 4ft 6s 5s 16 18 mph 1013.8mb 83f 83f
5:50 4ft 7s 5s 16 18 mph 1013.2mb 83f 83f
4:50 4.5ft 7s 5s 16 20 mph 1012.8mb 83f 83f
3:50 4ft 7s 5s 18 20 mph 1012.4mb 83f 83f
2:50 4ft 7s 5s 18 20 mph 1012.3mb 83f 83f
1:50 4ft 7s 5s 18 20 mph 1013mb 83f 83f
12:50 4ft 7s 5s 18 20 mph 1013.2mb 83f 83f
lun 09/15 11:50 4ft 7s 5s 16 18 mph 1014.3mb 83f 83f
10:50 4ft 7s 5s 16 20 mph 1014.6mb 83f 83f
9:50 4.5ft 7s 5s 16 20 mph 1014.5mb 83f 83f
8:50 4ft 7s 5s 18 20 mph 1014.3mb 83f 83f
7:50 4.5ft 7s 5s 16 18 mph 1013.7mb 83f 83f
6:50 4.5ft 8s 5s 16 18 mph 1013.2mb 83f 83f
5:50 4.5ft 8s 6s 13 16 mph 1012.7mb 83f 83f
4:50 5ft 8s 6s 13 16 mph 1012.4mb 83f 83f
3:50 4.5ft 7s 5s 13 16 mph 1012.4mb 83f 83f
2:50 5ft 7s 6s 13 16 mph 1012.9mb 83f 83f
1:50 5ft 8s 5s 16 18 mph 1013.2mb 83f 83f
12:50 5ft 7s 6s 16 18 mph 1014mb 83f 83f
11:50 6ft 8s 6s 16 18 mph 1014.7mb 83f 83f
10:50 6ft 8s 6s 16 20 mph 1015.5mb 83f 83f
9:50 5.5ft 8s 6s 16 18 mph 1015.6mb 83f 83f
8:50 5.5ft 8s 6s 16 18 mph 1015.4mb 83f 83f
7:50 6ft 8s 6s 18 20 mph 1015.1mb 83f 83f
6:50 5.5ft 8s 5s 18 22 mph 1014.4mb 83f 83f
5:50 6.5ft 8s 6s 20 22 mph 1013.8mb 83f 83f
4:50 7ft 8s 6s 20 22 mph 1013.5mb 83f 83f
3:50 6ft 7s 6s 20 27 mph 1012.9mb 83f 83f
2:50 6ft 8s 6s 20 22 mph 1013mb 83f 83f
1:50 6.5ft 8s 6s 18 20 mph 1013.1mb 83f 83f
12:50 6ft 7s 5s 18 22 mph 1013.6mb 83f 83f
dom 09/14 11:50 6ft 8s 5s 18 22 mph 1014mb 83f 83f
10:50 7ft 7s 6s 18 22 mph 1014mb 83f 83f
9:50 6.5ft 8s 6s 20 27 mph 1013.8mb 83f 83f
8:50 7ft 8s 6s 22 25 mph 1013.6mb 83f 83f
7:50 6ft 8s 6s 18 22 mph 1013mb 83f 83f
6:50 7ft 8s 6s 20 25 mph 1012.6mb 83f 84f